createdAt,value
2019-05-20T00:01:39.872Z,18.05
2019-05-20T00:04:11.253Z,17.99
2019-05-20T00:06:43.619Z,17.98
2019-05-20T00:09:15.091Z,17.96
2019-05-20T00:11:48.054Z,17.92
2019-05-20T00:14:21.584Z,17.88
2019-05-20T00:16:52.997Z,17.89
2019-05-20T00:19:24.610Z,17.89
2019-05-20T00:21:56.009Z,17.91
2019-05-20T00:24:28.773Z,17.82
2019-05-20T00:27:00.680Z,17.92
2019-05-20T00:29:32.167Z,17.91
2019-05-20T00:32:03.647Z,17.88
2019-05-20T00:34:35.811Z,17.96
2019-05-20T00:37:09.232Z,17.95
2019-05-20T00:39:40.635Z,18.04
2019-05-20T00:42:14.132Z,18.02
2019-05-20T00:44:45.601Z,18.06
2019-05-20T00:47:17.042Z,18.01
2019-05-20T00:49:48.454Z,18.03
2019-05-20T00:52:21.040Z,18.03
2019-05-20T00:54:52.431Z,17.99
2019-05-20T00:57:25.683Z,18.01
2019-05-20T00:59:57.692Z,18.00
2019-05-20T01:02:29.131Z,17.98
2019-05-20T01:05:00.529Z,17.96
2019-05-20T01:07:32.071Z,17.93
2019-05-20T01:10:04.480Z,17.93
2019-05-20T01:12:35.919Z,17.99
2019-05-20T01:15:10.666Z,17.94
2019-05-20T01:17:42.064Z,17.96
2019-05-20T01:20:14.474Z,17.93
2019-05-20T01:22:47.532Z,17.92
2019-05-20T01:25:19.994Z,17.86
2019-05-20T01:27:53.537Z,17.88
2019-05-20T01:30:25.525Z,17.84
2019-05-20T01:33:12.777Z,17.82
2019-05-20T01:35:32.053Z,17.82
2019-05-20T01:38:03.499Z,17.78
2019-05-20T01:40:34.915Z,17.73
2019-05-20T01:43:06.422Z,17.61
2019-05-20T01:45:38.877Z,17.65
2019-05-20T01:48:10.330Z,17.63
2019-05-20T01:50:43.063Z,17.71
2019-05-20T01:53:15.468Z,17.66
2019-05-20T01:55:46.784Z,17.63
2019-05-20T01:58:20.354Z,17.62
2019-05-20T02:00:51.818Z,17.54
2019-05-20T02:03:31.537Z,17.56
2019-05-20T02:05:59.815Z,17.57
2019-05-20T02:08:31.223Z,17.50
2019-05-20T02:11:02.699Z,17.48
2019-05-20T02:13:52.147Z,17.42
2019-05-20T02:16:25.158Z,17.38
2019-05-20T02:18:57.596Z,17.32
2019-05-20T02:21:30.017Z,17.35
2019-05-20T02:24:04.764Z,17.35
2019-05-20T02:26:35.576Z,17.33
2019-05-20T02:29:07.128Z,17.34
2019-05-20T02:31:38.552Z,17.26
2019-05-20T02:34:10.041Z,17.23
2019-05-20T02:36:41.459Z,17.33
2019-05-20T02:39:12.857Z,17.35
2019-05-20T02:41:44.438Z,17.45
2019-05-20T02:44:15.883Z,17.50
2019-05-20T02:46:47.580Z,17.61
2019-05-20T02:49:19.016Z,17.66
2019-05-20T02:51:50.554Z,17.71
2019-05-20T02:54:22.051Z,17.71
2019-05-20T02:56:53.444Z,17.70
2019-05-20T02:59:24.940Z,17.69
2019-05-20T03:01:56.486Z,17.61
2019-05-20T03:04:29.111Z,17.57
2019-05-20T03:07:01.617Z,17.49
2019-05-20T03:09:34.025Z,17.55
2019-05-20T03:12:05.468Z,17.56
2019-05-20T03:14:38.938Z,17.53
2019-05-20T03:17:12.365Z,17.52
2019-05-20T03:19:43.758Z,17.59
2019-05-20T03:22:15.204Z,17.64
2019-05-20T03:24:46.659Z,17.69
2019-05-20T03:27:18.120Z,17.66
2019-05-20T03:29:49.513Z,17.64
2019-05-20T03:32:21.003Z,17.62
2019-05-20T03:34:59.276Z,17.71
2019-05-20T03:37:26.371Z,17.78
2019-05-20T03:39:57.723Z,17.83
2019-05-20T03:42:29.215Z,17.95
2019-05-20T03:45:00.635Z,17.98
2019-05-20T03:47:32.032Z,18.18
2019-05-20T03:50:08.565Z,18.21
2019-05-20T03:52:42.011Z,18.33
2019-05-20T03:55:13.654Z,18.41
2019-05-20T03:57:45.103Z,18.48
2019-05-20T04:00:18.067Z,18.64
2019-05-20T04:02:49.498Z,18.70
2019-05-20T04:05:20.959Z,18.80
2019-05-20T04:07:53.362Z,19.01
2019-05-20T04:10:24.806Z,19.13
2019-05-20T04:12:56.261Z,19.47
2019-05-20T04:15:27.720Z,19.78
2019-05-20T04:17:59.243Z,19.63
2019-05-20T04:20:30.770Z,19.47
2019-05-20T04:23:02.319Z,19.54
2019-05-20T04:25:33.882Z,20.00
2019-05-20T04:28:05.481Z,20.62
2019-05-20T04:30:36.968Z,21.41
2019-05-20T04:33:08.527Z,22.76
2019-05-20T04:35:39.919Z,23.79
2019-05-20T04:38:11.557Z,24.11
2019-05-20T04:40:44.499Z,24.96
2019-05-20T04:43:15.904Z,25.46
2019-05-20T04:45:48.467Z,26.01
2019-05-20T04:48:20.374Z,26.36
2019-05-20T04:50:51.976Z,25.83
2019-05-20T04:53:23.543Z,26.45
2019-05-20T04:55:54.950Z,28.09
2019-05-20T04:58:26.454Z,28.34
2019-05-20T05:00:58.643Z,28.61
2019-05-20T05:03:30.152Z,29.12
2019-05-20T05:06:01.499Z,29.03
2019-05-20T05:08:33.033Z,28.47
2019-05-20T05:11:04.529Z,28.41
2019-05-20T05:13:35.949Z,29.10
2019-05-20T05:16:07.580Z,28.90
2019-05-20T05:18:40.150Z,27.96
2019-05-20T05:21:11.698Z,28.84
2019-05-20T05:23:58.355Z,29.55
2019-05-20T05:26:17.459Z,29.64
2019-05-20T05:28:50.521Z,30.93
2019-05-20T05:31:21.987Z,29.93
2019-05-20T05:33:54.427Z,29.91
2019-05-20T05:36:28.039Z,31.00
2019-05-20T05:41:34.908Z,31.90
2019-05-20T05:44:06.529Z,30.30
2019-05-20T05:46:38.096Z,30.29
2019-05-20T05:51:41.243Z,29.26
2019-05-20T05:54:12.713Z,30.58
2019-05-20T05:56:44.138Z,31.17
2019-05-20T05:59:16.275Z,31.39
2019-05-20T06:01:47.787Z,29.37
2019-05-20T06:04:20.255Z,31.85
2019-05-20T06:06:53.714Z,32.14
2019-05-20T06:09:25.618Z,31.73
2019-05-20T06:12:04.870Z,31.18
2019-05-20T06:14:37.590Z,30.87
2019-05-20T06:17:09.105Z,30.85
2019-05-20T06:19:40.738Z,31.64
2019-05-20T06:22:14.754Z,31.26
2019-05-20T06:24:45.622Z,33.17
2019-05-20T06:27:16.901Z,33.53
2019-05-20T06:29:50.532Z,32.24
2019-05-20T06:32:22.956Z,32.97
2019-05-20T06:34:55.447Z,33.02
2019-05-20T06:37:40.904Z,33.27
2019-05-20T06:40:12.574Z,32.58
2019-05-20T06:42:46.613Z,32.08
2019-05-20T06:45:18.581Z,32.36
2019-05-20T06:47:51.195Z,31.55
2019-05-20T06:50:22.865Z,33.02
2019-05-20T06:52:55.577Z,32.96
2019-05-20T06:55:29.817Z,33.51
2019-05-20T06:58:02.384Z,32.37
2019-05-20T07:00:38.447Z,32.37
2019-05-20T07:03:11.117Z,33.70
2019-05-20T07:05:44.705Z,33.25
2019-05-20T07:08:23.236Z,33.37
2019-05-20T07:10:59.048Z,33.13
2019-05-20T07:13:34.250Z,32.88
2019-05-20T07:16:10.671Z,32.68
2019-05-20T07:18:49.749Z,33.70
2019-05-20T07:21:25.983Z,33.35
2019-05-20T07:24:06.978Z,33.92
2019-05-20T07:26:43.199Z,33.71
2019-05-20T07:29:20.684Z,34.30
2019-05-20T07:31:55.455Z,34.21
2019-05-20T07:34:36.959Z,33.61
2019-05-20T07:37:17.427Z,33.30
2019-05-20T07:39:58.165Z,32.90
2019-05-20T07:42:39.111Z,33.50
2019-05-20T07:45:15.965Z,32.84
2019-05-20T07:47:50.257Z,33.29
2019-05-20T07:50:29.964Z,33.14
2019-05-20T07:53:14.132Z,32.81
2019-05-20T07:56:02.961Z,33.32
2019-05-20T07:58:46.976Z,33.38
2019-05-20T08:01:27.760Z,31.37
2019-05-20T08:04:11.711Z,31.10
2019-05-20T08:06:44.443Z,33.29
2019-05-20T08:09:17.677Z,32.91
2019-05-20T08:11:50.285Z,31.37
2019-05-20T08:14:23.313Z,32.01
2019-05-20T08:16:55.947Z,32.31
2019-05-20T08:19:29.027Z,30.71
2019-05-20T08:22:02.922Z,29.96
2019-05-20T08:24:35.855Z,28.73
2019-05-20T08:27:08.895Z,28.32
2019-05-20T08:29:42.261Z,27.81
2019-05-20T08:32:15.492Z,27.99
2019-05-20T08:34:48.228Z,27.89
2019-05-20T08:37:22.316Z,27.81
2019-05-20T08:39:57.218Z,27.39
2019-05-20T08:42:32.332Z,27.24
2019-05-20T08:45:09.438Z,27.04
2019-05-20T08:47:47.063Z,26.96
2019-05-20T08:50:19.199Z,27.26
2019-05-20T08:52:52.646Z,26.84
2019-05-20T08:55:26.897Z,26.51
2019-05-20T08:58:02.108Z,26.67
2019-05-20T09:00:34.439Z,26.81
2019-05-20T09:03:08.359Z,26.91
2019-05-20T09:05:40.411Z,26.73
2019-05-20T09:08:13.618Z,26.65
2019-05-20T09:10:46.472Z,26.58
2019-05-20T09:13:18.363Z,26.30
2019-05-20T09:15:49.919Z,26.44
2019-05-20T09:18:22.603Z,26.51
2019-05-20T09:20:56.146Z,26.41
2019-05-20T09:23:27.601Z,26.36
2019-05-20T09:25:59.155Z,26.18
2019-05-20T09:28:31.882Z,26.23
2019-05-20T09:31:07.977Z,26.04
2019-05-20T09:33:40.830Z,26.04
2019-05-20T09:36:17.607Z,26.07
2019-05-20T09:38:49.126Z,26.15
2019-05-20T09:41:20.879Z,26.20
2019-05-20T09:43:52.507Z,26.13
2019-05-20T09:46:32.669Z,26.09
2019-05-20T09:49:04.236Z,26.31
2019-05-20T09:51:36.239Z,26.40
2019-05-20T09:54:07.904Z,26.49
2019-05-20T09:56:39.349Z,26.58
2019-05-20T09:59:16.884Z,26.43
2019-05-20T10:01:50.401Z,26.53
2019-05-20T10:04:22.217Z,26.42
2019-05-20T10:06:58.378Z,26.46
2019-05-20T10:09:37.328Z,26.07
2019-05-20T10:12:08.963Z,26.25
2019-05-20T10:14:40.524Z,26.20
2019-05-20T10:17:12.155Z,26.23
2019-05-20T10:19:43.654Z,26.22
2019-05-20T10:22:17.660Z,26.16
2019-05-20T10:24:49.267Z,26.17
2019-05-20T10:27:22.243Z,26.17
2019-05-20T10:29:55.022Z,26.36
2019-05-20T10:32:26.569Z,26.30
2019-05-20T10:34:59.611Z,26.22
2019-05-20T10:37:31.214Z,26.27
2019-05-20T10:40:02.710Z,26.39
2019-05-20T10:42:36.691Z,26.24
2019-05-20T10:45:08.864Z,26.34
2019-05-20T10:47:40.498Z,26.32
2019-05-20T10:50:14.776Z,26.50
2019-05-20T10:52:47.359Z,26.52
2019-05-20T10:55:18.893Z,26.43
2019-05-20T10:57:51.238Z,26.60
2019-05-20T11:00:24.602Z,26.69
2019-05-20T11:02:56.247Z,26.56
2019-05-20T11:05:27.925Z,26.42
2019-05-20T11:08:00.348Z,26.48
2019-05-20T11:10:32.973Z,26.60
2019-05-20T11:13:04.472Z,26.49
2019-05-20T11:15:36.103Z,26.53
2019-05-20T11:18:09.585Z,26.55
2019-05-20T11:20:54.536Z,26.52
2019-05-20T11:23:26.400Z,26.61
2019-05-20T11:25:57.889Z,26.77
2019-05-20T11:28:29.532Z,26.76
2019-05-20T11:31:01.255Z,26.69
2019-05-20T11:33:32.695Z,26.61
2019-05-20T11:36:04.216Z,26.69
2019-05-20T11:38:35.896Z,26.59
2019-05-20T11:41:07.970Z,26.74
2019-05-20T11:43:40.186Z,26.90
2019-05-20T11:46:13.655Z,26.94
2019-05-20T11:48:45.176Z,26.90
2019-05-20T11:51:17.010Z,26.97
2019-05-20T11:53:49.907Z,26.85
2019-05-20T11:56:22.657Z,26.82
2019-05-20T11:58:54.399Z,26.82
2019-05-20T12:01:28.177Z,26.82
2019-05-20T12:04:01.158Z,26.97
2019-05-20T12:06:32.900Z,27.05
2019-05-20T12:09:06.405Z,26.91
2019-05-20T12:11:38.223Z,26.99
2019-05-20T12:14:10.888Z,27.03
2019-05-20T12:16:42.463Z,27.17
2019-05-20T12:19:14.295Z,27.09
2019-05-20T12:21:46.030Z,27.09
2019-05-20T12:24:27.482Z,26.91
2019-05-20T12:27:12.302Z,26.98
2019-05-20T12:29:57.768Z,27.04
2019-05-20T12:32:30.504Z,27.04
2019-05-20T12:35:02.236Z,27.22
2019-05-20T12:37:33.923Z,27.06
2019-05-20T12:40:08.301Z,26.92
2019-05-20T12:42:40.405Z,27.03
2019-05-20T12:45:12.011Z,26.96
2019-05-20T12:47:45.619Z,27.14
2019-05-20T12:50:18.047Z,27.00
2019-05-20T12:52:49.632Z,27.20
2019-05-20T12:55:21.465Z,27.03
2019-05-20T12:57:57.573Z,27.08
2019-05-20T13:00:29.114Z,26.97
2019-05-20T13:03:00.905Z,27.14
2019-05-20T13:05:32.395Z,27.20
2019-05-20T13:08:04.245Z,27.18
2019-05-20T13:10:36.073Z,27.19
2019-05-20T13:13:07.574Z,27.21
2019-05-20T13:15:39.261Z,27.20
2019-05-20T13:18:14.945Z,27.18
2019-05-20T13:20:47.636Z,27.20
2019-05-20T13:23:19.140Z,27.28
2019-05-20T13:25:50.641Z,27.24
2019-05-20T13:28:22.285Z,27.19
2019-05-20T13:30:53.960Z,27.25
2019-05-20T13:33:25.388Z,27.18
2019-05-20T13:35:57.945Z,27.14
2019-05-20T13:38:29.568Z,26.98
2019-05-20T13:41:01.268Z,27.08
2019-05-20T13:43:32.866Z,27.12
2019-05-20T13:46:04.424Z,27.14
2019-05-20T13:48:36.112Z,27.11
2019-05-20T13:51:09.895Z,26.92
2019-05-20T13:53:41.458Z,26.99
2019-05-20T13:56:14.985Z,27.01
2019-05-20T13:58:51.926Z,26.89
2019-05-20T14:01:23.560Z,26.88
2019-05-20T14:03:57.395Z,26.85
2019-05-20T14:06:29.221Z,26.95
2019-05-20T14:09:00.687Z,27.06
2019-05-20T14:11:34.861Z,27.04
2019-05-20T14:14:06.752Z,26.93
2019-05-20T14:16:39.378Z,26.89
2019-05-20T14:19:12.036Z,26.90
2019-05-20T14:21:45.750Z,26.89
2019-05-20T14:24:17.304Z,26.91
2019-05-20T14:26:48.730Z,26.91
2019-05-20T14:29:20.253Z,26.92
2019-05-20T14:31:51.859Z,26.86
2019-05-20T14:34:23.361Z,26.92
2019-05-20T14:36:54.840Z,26.90
2019-05-20T14:39:28.509Z,26.83
2019-05-20T14:42:00.161Z,26.79
2019-05-20T14:44:31.754Z,26.81
2019-05-20T14:47:04.577Z,26.79
2019-05-20T14:49:37.404Z,26.82
2019-05-20T14:52:09.922Z,26.77
2019-05-20T14:54:41.550Z,26.78
2019-05-20T14:57:13.442Z,26.72
2019-05-20T14:59:46.286Z,26.80
2019-05-20T15:02:20.083Z,26.73
2019-05-20T15:04:52.081Z,26.69
2019-05-20T15:07:30.950Z,26.73
2019-05-20T15:10:00.597Z,26.68
2019-05-20T15:12:32.500Z,26.69
2019-05-20T15:15:07.478Z,26.67
2019-05-20T15:17:39.423Z,26.71
2019-05-20T15:20:12.515Z,26.70
2019-05-20T15:22:44.057Z,26.65
2019-05-20T15:25:15.714Z,26.59
2019-05-20T15:27:49.798Z,26.54
2019-05-20T15:30:21.804Z,26.57
2019-05-20T15:32:54.858Z,26.57
2019-05-20T15:35:27.669Z,26.56
2019-05-20T15:38:00.284Z,26.55
2019-05-20T15:40:32.162Z,26.53
2019-05-20T15:43:05.949Z,26.48
2019-05-20T15:45:44.528Z,26.47
2019-05-20T15:48:16.181Z,26.43
2019-05-20T15:50:48.711Z,26.47
2019-05-20T15:53:20.419Z,26.48
2019-05-20T15:55:57.620Z,26.42
2019-05-20T15:58:29.307Z,26.36
2019-05-20T16:01:00.803Z,26.31
2019-05-20T16:03:33.607Z,26.30
2019-05-20T16:06:07.216Z,26.25
2019-05-20T16:08:43.523Z,26.25
2019-05-20T16:11:15.024Z,26.30
2019-05-20T16:13:46.497Z,26.16
2019-05-20T16:16:18.023Z,26.11
2019-05-20T16:18:50.491Z,26.05
2019-05-20T16:21:21.897Z,26.00
2019-05-20T16:23:53.346Z,25.92
2019-05-20T16:26:24.947Z,25.84
2019-05-20T16:28:56.842Z,25.80
2019-05-20T16:31:30.616Z,25.75
2019-05-20T16:34:02.219Z,25.70
2019-05-20T16:36:33.971Z,25.61
2019-05-20T16:39:06.800Z,25.60
2019-05-20T16:41:40.715Z,25.56
2019-05-20T16:44:17.662Z,25.51
2019-05-20T16:46:49.466Z,25.49
2019-05-20T16:49:22.054Z,25.41
2019-05-20T16:51:55.916Z,25.38
2019-05-20T16:54:27.500Z,25.30
2019-05-20T16:56:59.255Z,25.28
2019-05-20T16:59:31.732Z,25.17
2019-05-20T17:02:03.328Z,25.12
2019-05-20T17:04:35.179Z,25.04
2019-05-20T17:07:07.667Z,24.96
2019-05-20T17:09:41.239Z,24.89
2019-05-20T17:12:13.175Z,24.83
2019-05-20T17:14:45.022Z,24.77
2019-05-20T17:17:17.982Z,24.72
2019-05-20T17:19:50.857Z,24.65
2019-05-20T17:22:24.610Z,24.60
2019-05-20T17:24:56.712Z,24.53
2019-05-20T17:27:29.003Z,24.43
2019-05-20T17:30:00.664Z,24.39
2019-05-20T17:32:32.166Z,24.33
2019-05-20T17:35:03.811Z,24.19
2019-05-20T17:37:37.165Z,24.21
2019-05-20T17:40:09.556Z,24.10
2019-05-20T17:42:41.494Z,24.05
2019-05-20T17:45:15.875Z,24.00
2019-05-20T17:47:47.775Z,23.92
2019-05-20T17:50:23.294Z,23.88
2019-05-20T17:52:54.825Z,23.76
2019-05-20T17:55:26.715Z,23.73
2019-05-20T17:57:58.357Z,23.65
2019-05-20T18:00:30.089Z,23.61
2019-05-20T18:03:02.532Z,23.59
2019-05-20T18:05:38.593Z,23.53
2019-05-20T18:08:10.408Z,23.48
2019-05-20T18:10:42.161Z,23.45
2019-05-20T18:13:13.689Z,23.41
2019-05-20T18:15:45.432Z,23.31
2019-05-20T18:18:23.622Z,23.27
2019-05-20T18:20:58.143Z,23.22
2019-05-20T18:23:34.883Z,23.14
2019-05-20T18:26:10.954Z,23.05
2019-05-20T18:28:42.490Z,23.01
2019-05-20T18:31:31.176Z,22.94
2019-05-20T18:33:51.428Z,22.93
2019-05-20T18:36:25.025Z,22.87
2019-05-20T18:38:58.482Z,22.85
2019-05-20T18:41:30.553Z,22.77
2019-05-20T18:44:02.171Z,22.78
2019-05-20T18:46:33.615Z,22.70
2019-05-20T18:49:05.316Z,22.67
2019-05-20T18:51:37.783Z,22.62
2019-05-20T18:54:10.957Z,22.61
2019-05-20T18:56:42.450Z,22.60
2019-05-20T18:59:13.914Z,22.54
2019-05-20T19:02:02.366Z,22.54
2019-05-20T19:04:20.595Z,22.52
2019-05-20T19:06:52.070Z,22.53
2019-05-20T19:09:23.638Z,22.54
2019-05-20T19:11:56.042Z,22.51
2019-05-20T19:14:27.610Z,22.48
2019-05-20T19:16:59.390Z,22.42
2019-05-20T19:19:30.826Z,22.33
2019-05-20T19:22:03.582Z,22.35
2019-05-20T19:24:35.960Z,22.28
2019-05-20T19:27:07.845Z,22.22
2019-05-20T19:29:39.354Z,22.23
2019-05-20T19:32:12.102Z,22.21
2019-05-20T19:34:45.191Z,22.10
2019-05-20T19:37:19.685Z,21.99
2019-05-20T19:39:51.127Z,21.81
2019-05-20T19:42:22.470Z,21.75
2019-05-20T19:44:54.869Z,21.77
2019-05-20T19:47:26.291Z,21.80
2019-05-20T19:49:57.727Z,21.79
2019-05-20T19:52:30.861Z,21.75
2019-05-20T19:55:03.787Z,21.75
2019-05-20T19:57:36.186Z,21.75
2019-05-20T20:00:09.845Z,21.74
2019-05-20T20:02:41.251Z,21.69
2019-05-20T20:05:12.941Z,21.55
2019-05-20T20:07:44.481Z,21.57
2019-05-20T20:10:16.147Z,21.47
2019-05-20T20:12:47.792Z,21.48
2019-05-20T20:15:20.125Z,21.42
2019-05-20T20:17:51.712Z,21.31
2019-05-20T20:20:23.107Z,21.23
2019-05-20T20:22:57.809Z,21.16
2019-05-20T20:25:29.484Z,21.14
2019-05-20T20:28:00.764Z,21.17
2019-05-20T20:30:32.420Z,21.13
2019-05-20T20:33:04.882Z,21.03
2019-05-20T20:35:38.473Z,20.95
2019-05-20T20:38:11.164Z,20.86
2019-05-20T20:40:42.640Z,20.83
2019-05-20T20:43:16.061Z,20.89
2019-05-20T20:45:51.029Z,20.85
2019-05-20T20:48:22.590Z,20.94
2019-05-20T20:50:56.118Z,20.89
2019-05-20T20:53:32.178Z,20.88
2019-05-20T20:56:04.076Z,20.87
2019-05-20T20:58:35.860Z,20.84
2019-05-20T21:01:10.093Z,20.75
2019-05-20T21:03:41.768Z,20.80
2019-05-20T21:06:13.271Z,20.86
2019-05-20T21:08:45.798Z,20.77
2019-05-20T21:11:17.232Z,20.67
2019-05-20T21:13:48.781Z,20.68
2019-05-20T21:16:20.335Z,20.67
2019-05-20T21:18:51.742Z,20.71
2019-05-20T21:21:24.287Z,20.65
2019-05-20T21:23:55.746Z,20.62
2019-05-20T21:26:27.187Z,20.62
2019-05-20T21:28:58.728Z,20.54
2019-05-20T21:31:31.691Z,20.51
2019-05-20T21:34:03.185Z,20.54
2019-05-20T21:36:47.260Z,20.44
2019-05-20T21:39:08.303Z,20.48
2019-05-20T21:41:39.850Z,20.40
2019-05-20T21:44:11.314Z,20.40
2019-05-20T21:46:43.705Z,20.37
2019-05-20T21:49:15.231Z,20.34
2019-05-20T21:51:46.699Z,20.30
2019-05-20T21:54:18.128Z,20.31
2019-05-20T21:56:50.205Z,20.32
2019-05-20T21:59:21.876Z,20.33
2019-05-20T22:01:53.386Z,20.27
2019-05-20T22:04:24.801Z,20.19
2019-05-20T22:06:57.195Z,20.10
2019-05-20T22:09:28.584Z,20.19
2019-05-20T22:12:00.131Z,20.12
2019-05-20T22:14:31.678Z,20.09
2019-05-20T22:17:03.224Z,20.07
2019-05-20T22:19:34.706Z,20.04
2019-05-20T22:22:24.978Z,20.04
2019-05-20T22:24:57.332Z,20.02
2019-05-20T22:27:30.057Z,19.99
2019-05-20T22:30:01.592Z,19.94
2019-05-20T22:32:34.220Z,19.98
2019-05-20T22:35:08.110Z,19.95
2019-05-20T22:37:39.606Z,19.92
2019-05-20T22:40:12.413Z,19.92
2019-05-20T22:42:46.062Z,19.85
2019-05-20T22:45:19.613Z,19.80
2019-05-20T22:47:52.171Z,19.79
2019-05-20T22:50:23.700Z,19.72
2019-05-20T22:52:55.263Z,19.67
2019-05-20T22:55:26.805Z,19.62
2019-05-20T22:57:58.319Z,19.58
2019-05-20T23:00:29.874Z,19.51
2019-05-20T23:03:01.454Z,19.51
2019-05-20T23:05:33.060Z,19.44
2019-05-20T23:08:04.622Z,19.42
2019-05-20T23:10:38.179Z,19.37
2019-05-20T23:13:11.052Z,19.36
2019-05-20T23:15:42.974Z,19.30
2019-05-20T23:18:14.373Z,19.22
2019-05-20T23:20:45.829Z,19.26
2019-05-20T23:23:17.331Z,19.19
2019-05-20T23:25:52.831Z,19.14
2019-05-20T23:28:23.230Z,19.04
2019-05-20T23:30:56.151Z,19.14
2019-05-20T23:33:27.514Z,18.99
2019-05-20T23:35:59.067Z,18.93
2019-05-20T23:38:30.480Z,18.92
2019-05-20T23:41:02.006Z,18.85
2019-05-20T23:43:33.459Z,18.82
2019-05-20T23:46:04.906Z,18.83
2019-05-20T23:48:36.409Z,18.81
2019-05-20T23:51:08.029Z,18.83
2019-05-20T23:53:39.497Z,18.80
2019-05-20T23:56:11.980Z,18.79
2019-05-20T23:58:44.330Z,18.68
